createdAt,value
2019-05-17T09:13:00.032Z,34.3000
2019-05-17T09:13:12.415Z,34.6000
2019-05-17T09:13:22.883Z,34.6000
2019-05-17T09:13:31.284Z,34.7000
2019-05-17T09:13:40.084Z,36.0000
2019-05-17T09:13:58.317Z,39.9000
2019-05-17T09:14:10.468Z,39.5000
2019-05-17T09:14:21.359Z,37.9000
2019-05-17T09:14:29.918Z,37.6000
2019-05-17T09:14:40.091Z,37.0000
2019-05-17T09:14:49.612Z,37.8000
2019-05-17T09:15:00.258Z,36.1000
2019-05-17T09:15:10.074Z,36.8000
2019-05-17T09:15:20.329Z,33.8000
2019-05-17T09:15:29.670Z,33.0000
2019-05-17T09:15:39.941Z,32.7000
2019-05-17T09:15:49.440Z,32.3000
2019-05-17T09:16:00.146Z,31.8000
2019-05-17T09:16:10.690Z,31.3000
2019-05-17T09:16:19.712Z,31.2000
2019-05-17T09:16:30.574Z,30.8000
2019-05-17T09:16:40.087Z,30.7000
2019-05-17T09:16:50.441Z,30.7000
2019-05-17T09:17:00.430Z,30.8000
2019-05-17T09:17:10.281Z,30.8000
2019-05-17T09:17:19.403Z,30.7000
2019-05-17T09:17:29.913Z,30.7000
2019-05-17T09:17:39.597Z,30.7000
2019-05-17T09:17:49.855Z,30.7000
2019-05-17T09:18:00.281Z,30.7000
2019-05-17T09:18:09.913Z,30.7000
2019-05-17T09:18:20.656Z,30.7000
2019-05-17T09:18:30.163Z,30.8000
2019-05-17T09:18:39.448Z,30.7000
2019-05-17T09:18:50.031Z,30.7000
2019-05-17T09:19:00.565Z,30.8000
2019-05-17T09:19:10.100Z,30.8000
2019-05-17T09:19:19.416Z,30.9000
2019-05-17T09:19:29.897Z,30.8000
2019-05-17T09:19:39.474Z,30.9000
2019-05-17T09:19:50.507Z,30.7000
2019-05-17T09:20:00.722Z,30.6000
2019-05-17T09:20:10.697Z,30.5000
2019-05-17T09:20:20.396Z,30.5000
2019-05-17T09:20:29.631Z,30.5000
2019-05-17T09:20:40.241Z,36.1000
2019-05-17T09:20:49.498Z,35.2000
2019-05-17T09:21:00.068Z,34.2000
2019-05-17T09:21:09.697Z,33.3000
2019-05-17T09:21:18.256Z,33.2000
2019-05-17T09:21:26.680Z,32.4000
2019-05-17T09:21:35.087Z,30.2000
2019-05-17T09:21:43.503Z,28.7000
2019-05-17T09:21:51.918Z,26.4000
2019-05-17T09:22:00.327Z,25.0000
2019-05-17T09:22:10.536Z,23.6000
2019-05-17T09:22:19.806Z,22.3000
2019-05-17T09:22:30.419Z,20.9000
2019-05-17T09:22:39.589Z,19.6000
2019-05-17T09:22:48.303Z,19.0000
2019-05-17T09:22:56.715Z,18.1000
2019-05-17T09:23:05.144Z,17.5000
2019-05-17T09:23:13.558Z,16.6000
2019-05-17T09:23:21.960Z,16.1000
2019-05-17T09:23:30.673Z,15.2000
2019-05-17T09:23:39.692Z,14.7000
2019-05-17T09:23:50.224Z,14.2000
2019-05-17T09:23:59.751Z,14.1000
2019-05-17T09:24:10.253Z,14.2000
2019-05-17T09:24:35.339Z,15.6000
2019-05-17T09:24:43.742Z,16.7000
2019-05-17T09:24:52.149Z,18.9000
2019-05-17T09:25:00.562Z,20.3000
2019-05-17T09:25:13.587Z,21.8000
2019-05-17T09:25:23.382Z,22.4000
2019-05-17T09:25:31.802Z,23.3000
2019-05-17T09:25:40.263Z,24.1000
2019-05-17T09:25:50.073Z,25.0000
2019-05-17T09:25:59.522Z,25.6000
2019-05-17T09:26:10.059Z,26.0000
2019-05-17T09:26:19.978Z,26.7000
2019-05-17T09:26:29.412Z,27.2000
2019-05-17T09:26:39.949Z,27.9000
2019-05-17T09:26:49.217Z,28.4000
2019-05-17T09:26:59.857Z,28.9000
2019-05-17T09:39:32.360Z,37.1000
2019-05-17T09:39:40.774Z,37.0000
2019-05-17T09:39:49.323Z,37.0000
2019-05-17T09:39:59.700Z,36.9000
2019-05-17T09:40:09.359Z,36.8000
2019-05-17T09:40:20.027Z,36.7000
2019-05-17T09:40:29.270Z,36.6000
2019-05-17T09:40:40.130Z,36.6000
2019-05-17T09:40:50.549Z,36.5000
2019-05-17T09:41:00.014Z,36.5000
2019-05-17T09:41:09.364Z,36.6000
2019-05-17T09:41:19.886Z,35.9000
2019-05-17T09:41:29.319Z,34.8000
2019-05-17T09:41:39.752Z,34.9000
2019-05-17T09:41:50.299Z,35.1000
2019-05-17T09:41:59.597Z,36.6000
2019-05-17T09:42:10.191Z,38.2000
2019-05-17T09:42:20.945Z,39.6000
2019-05-17T09:42:30.088Z,40.8000
2019-05-17T09:42:41.147Z,41.4000
2019-05-17T09:42:50.056Z,42.0000
2019-05-17T09:43:00.523Z,42.4000
2019-05-17T09:43:10.213Z,42.9000
2019-05-17T09:43:20.524Z,43.1000
2019-05-17T09:43:29.647Z,43.5000
2019-05-17T09:43:40.226Z,43.5000
2019-05-17T09:43:49.686Z,43.4000
2019-05-17T09:44:09.600Z,43.3000
2019-05-17T09:44:16.192Z,43.0000
2019-05-17T09:44:25.114Z,42.8000
2019-05-17T09:44:33.621Z,42.5000
2019-05-17T09:44:42.643Z,42.1000
2019-05-17T09:44:51.120Z,41.8000
2019-05-17T09:45:00.390Z,41.4000
2019-05-17T09:45:09.654Z,41.1000
2019-05-17T09:45:20.206Z,40.8000
2019-05-17T09:45:30.606Z,40.6000
2019-05-17T09:45:40.396Z,40.4000
2019-05-17T09:45:50.667Z,40.1000
2019-05-17T09:46:01.689Z,39.9000
2019-05-17T09:46:10.807Z,39.6000
2019-05-17T09:46:19.786Z,39.3000
2019-05-17T09:46:30.283Z,39.1000
2019-05-17T09:46:39.565Z,38.8000
